메인 페이지
METAR-TAF:

METAR-TAF

공항 :

헨리 코안더 국제공항

부쿠레슈티, 루마니아

위도: 44-33N, 경도: 026-06E, 고도: 95m

현재 날씨관측

예보는 37분 전, 04:00시(UTC)에 발표되었습니다.
북북동4kt
온도 14°C
습도 77%
기압 1020 hPa
시정 10km 이상
1500m 미만 상공 구름 및 적란운 없음

METAR: LROP 220400Z 03004KT CAVOK 14/10 Q1020 NOSIG

시각: 07:37 (04:37 UTC)

예보

예보는 5 시간 37분 전, 23:00시(UTC)에 발표되었습니다.
예보 대상 시간: 22일 00시부터 22일 24시까지 (UTC)
여러 방향의 바람 4kt
시정 10km 이상
1500m 미만 상공 구름 및 적란운 없음
전환 중
22일 08시부터 22일 10시까지 (UTC)
10kt
전환 중
22일 19시부터 22일 21시까지 (UTC)
여러 방향의 바람 4kt

TAF: LROP 212300Z 2200/2224 VRB04KT CAVOK BECMG 2208/2210 09010KT BECMG 2219/2221 VRB04KT

4,000개 이상의 공항 관측 자료 및 예보 (METAR 및 TAF 보고).

지도상에서 검색 가능한 기상관측소가 노란 점과 빨간 점으로 표시되어 있습니다.

기상관측소 명을 보려면 표시 위로 마우스를 이동하세요.

날씨 관측과 예보를 보려면 클릭하세요.

지도 변경 : 확대하려면 엑스 표시가 있는 녹색 버튼, 축소하려면 빼기 표시가 있는 녹색 버튼, 다음 페이지의 지도를 보려면 녹색 화살표를 클릭하세요.


METAR-TAF: